Time;durP1;ratioP1;P1;durP2;ratioP2;P2;SDS_P1;SDS_P2;PMS_P1;PMS_P2;Temp;Humidity;BMP_temperature;BMP_pressure;BME280_temperature;BME280_humidity;BME280_pressure;Samples;Min_cycle;Max_cycle;Signal;HPM_P1;HPM_P2
2022/10/24 00:01:15;;;;;;;1.27;0.57;;;16.00;99.90;;;;;;5050949;28;20421;-76
2022/10/24 00:03:42;;;;;;;0.60;0.43;;;16.00;99.90;;;;;;5051220;28;20481;-76
2022/10/24 00:06:12;;;;;;;0.60;0.50;;;16.00;99.90;;;;;;5050423;28;20449;-76
2022/10/24 00:08:40;;;;;;;0.90;0.60;;;16.10;99.90;;;;;;5051388;28;20469;-76
2022/10/24 00:11:09;;;;;;;0.50;0.40;;;16.10;99.90;;;;;;5050790;28;20437;-76
2022/10/24 00:13:36;;;;;;;1.03;0.77;;;16.10;99.90;;;;;;5051223;28;20811;-75
2022/10/24 00:16:03;;;;;;;0.60;0.60;;;16.00;99.90;;;;;;5050701;28;21018;-75
2022/10/24 00:18:30;;;;;;;0.50;0.30;;;16.10;99.90;;;;;;5050845;28;20444;-76
2022/10/24 00:20:57;;;;;;;0.53;0.50;;;16.10;99.90;;;;;;5050845;28;20531;-75
2022/10/24 00:23:25;;;;;;;0.97;0.80;;;16.10;99.90;;;;;;5051222;28;20440;-76
2022/10/24 00:25:52;;;;;;;0.50;0.40;;;16.10;99.90;;;;;;5050643;28;20455;-75
2022/10/24 00:28:18;;;;;;;0.77;0.77;;;16.10;99.90;;;;;;5050775;28;20432;-75
2022/10/24 00:30:45;;;;;;;0.50;0.40;;;16.00;99.90;;;;;;5050353;28;20463;-76
2022/10/24 00:33:12;;;;;;;0.83;0.70;;;16.00;99.90;;;;;;5051205;28;20532;-76
2022/10/24 00:35:39;;;;;;;2.77;2.63;;;16.00;99.90;;;;;;5050540;28;20439;-76
2022/10/24 00:38:06;;;;;;;0.80;0.77;;;16.00;99.90;;;;;;5050752;28;20436;-75
2022/10/24 00:40:34;;;;;;;0.53;0.37;;;16.10;99.90;;;;;;5050928;28;20457;-76
2022/10/24 00:43:01;;;;;;;0.90;0.70;;;16.10;99.90;;;;;;5050894;28;20426;-76
2022/10/24 00:45:39;;;;;;;0.50;0.40;;;16.20;99.90;;;;;;5050698;28;20564;-76
2022/10/24 00:48:13;;;;;;;0.50;0.30;;;16.10;99.90;;;;;;5050896;28;20973;-75
2022/10/24 00:50:40;;;;;;;6.60;1.53;;;16.10;99.90;;;;;;5050925;28;20467;-76
2022/10/24 00:53:08;;;;;;;0.70;0.60;;;16.10;99.90;;;;;;5050543;28;20532;-75
2022/10/24 00:55:37;;;;;;;0.70;0.67;;;16.10;99.90;;;;;;5050979;28;20429;-75
2022/10/24 00:58:06;;;;;;;0.50;0.40;;;16.10;99.90;;;;;;5050346;28;20444;-75
2022/10/24 01:00:34;;;;;;;0.60;0.50;;;16.10;99.90;;;;;;5050235;28;21010;-76
2022/10/24 01:03:02;;;;;;;0.50;0.40;;;16.10;99.90;;;;;;5047209;28;20461;-76
2022/10/24 01:05:35;;;;;;;0.97;0.97;;;16.10;99.90;;;;;;5030311;28;20482;-76
2022/10/24 01:08:13;;;;;;;1.47;1.03;;;16.20;99.90;;;;;;5030831;28;20419;-76
2022/10/24 01:10:46;;;;;;;1.20;0.70;;;16.20;99.90;;;;;;5033778;28;20454;-76
2022/10/24 01:13:23;;;;;;;0.60;0.50;;;16.30;99.90;;;;;;5034409;28;20442;-76
2022/10/24 01:15:57;;;;;;;2.40;1.47;;;16.40;99.90;;;;;;5033972;28;20932;-75
2022/10/24 01:18:28;;;;;;;0.60;0.40;;;16.40;99.90;;;;;;5033531;28;20426;-75
2022/10/24 01:21:12;;;;;;;5.93;1.03;;;16.50;99.90;;;;;;5034093;28;20939;-76
2022/10/24 01:24:21;;;;;;;0.50;0.30;;;16.50;99.90;;;;;;5033939;28;20419;-75
2022/10/24 01:27:21;;;;;;;0.50;0.40;;;16.50;99.90;;;;;;5034368;28;20976;-75
2022/10/24 01:30:02;;;;;;;1.23;1.00;;;16.40;99.90;;;;;;5033663;28;20820;-75
2022/10/24 01:32:37;;;;;;;3.03;1.10;;;16.40;99.90;;;;;;5034183;28;20428;-75
2022/10/24 01:35:23;;;;;;;0.50;0.40;;;16.40;99.90;;;;;;5033671;28;20883;-76
2022/10/24 01:37:56;;;;;;;0.60;0.40;;;16.40;99.90;;;;;;5030962;28;20823;-75
2022/10/24 01:40:28;;;;;;;0.50;0.40;;;16.40;99.90;;;;;;5033838;28;20464;-76
2022/10/24 01:43:00;;;;;;;0.50;0.30;;;16.40;99.90;;;;;;5033614;28;20426;-76
2022/10/24 01:45:31;;;;;;;1.17;1.07;;;16.40;99.90;;;;;;5033667;28;20466;-76
2022/10/24 01:48:02;;;;;;;1.90;1.27;;;16.40;99.90;;;;;;5033883;28;20434;-76
2022/10/24 01:50:29;;;;;;;0.50;0.40;;;16.40;99.90;;;;;;5033746;28;20462;-76
2022/10/24 01:52:57;;;;;;;0.50;0.37;;;16.40;99.90;;;;;;5033498;28;20449;-76
2022/10/24 01:55:24;;;;;;;0.53;0.53;;;16.40;99.90;;;;;;5033138;28;20438;-76
2022/10/24 01:57:51;;;;;;;0.50;0.40;;;16.40;99.90;;;;;;5033149;28;20815;-75
2022/10/24 02:00:20;;;;;;;16.37;5.50;;;16.50;99.90;;;;;;5033836;28;20472;-76
2022/10/24 02:02:52;;;;;;;0.50;0.40;;;16.50;99.90;;;;;;5033733;28;20445;-76
2022/10/24 02:05:23;;;;;;;0.50;0.40;;;16.50;99.90;;;;;;5032539;28;20474;-76
2022/10/24 02:07:54;;;;;;;2.03;1.90;;;16.40;99.90;;;;;;5033595;28;20429;-76
2022/10/24 02:10:26;;;;;;;0.50;0.40;;;16.50;99.90;;;;;;5032960;28;20458;-76
2022/10/24 02:12:57;;;;;;;4.50;1.30;;;16.40;99.90;;;;;;5033098;28;20900;-75
2022/10/24 02:15:26;;;;;;;1.53;1.03;;;16.40;99.90;;;;;;5032959;28;20468;-76
2022/10/24 02:17:56;;;;;;;0.70;0.70;;;16.40;99.90;;;;;;5033083;28;20433;-76
2022/10/24 02:20:28;;;;;;;0.50;0.40;;;16.40;99.90;;;;;;5033074;28;20462;-75
2022/10/24 02:23:00;;;;;;;1.23;0.40;;;16.40;99.90;;;;;;5032185;28;20432;-76
2022/10/24 02:25:34;;;;;;;0.50;0.40;;;16.30;99.90;;;;;;5032963;28;20464;-76
2022/10/24 02:28:07;;;;;;;1.00;1.00;;;16.30;99.90;;;;;;5032935;28;20430;-76
2022/10/24 02:30:39;;;;;;;2.80;1.47;;;16.30;99.90;;;;;;5032827;28;20561;-75
2022/10/24 02:33:08;;;;;;;1.60;0.50;;;16.30;99.90;;;;;;5032597;28;20969;-75
2022/10/24 02:35:37;;;;;;;0.60;0.57;;;16.30;99.90;;;;;;5032295;28;20521;-75
2022/10/24 02:38:09;;;;;;;5.30;1.23;;;16.30;99.90;;;;;;5032162;28;20962;-76
2022/10/24 02:40:36;;;;;;;1.43;1.10;;;16.40;99.90;;;;;;5032913;28;20541;-76
2022/10/24 02:43:06;;;;;;;1.37;0.80;;;16.40;99.90;;;;;;5032481;28;20446;-75
2022/10/24 02:45:35;;;;;;;1.00;0.40;;;16.40;99.90;;;;;;5033326;28;20465;-75
2022/10/24 02:48:08;;;;;;;0.50;0.40;;;16.40;99.90;;;;;;5032688;28;20438;-76
2022/10/24 02:50:37;;;;;;;0.60;0.50;;;16.40;99.90;;;;;;5032325;28;20466;-76
2022/10/24 02:53:04;;;;;;;0.60;0.50;;;16.40;99.90;;;;;;5032126;28;20434;-76
2022/10/24 02:55:31;;;;;;;1.20;0.97;;;16.30;99.90;;;;;;5032124;28;20477;-75
2022/10/24 02:57:58;;;;;;;0.50;0.30;;;16.30;99.90;;;;;;5032315;28;20452;-75
2022/10/24 03:00:25;;;;;;;2.63;1.70;;;16.30;99.90;;;;;;5032151;28;20492;-74
2022/10/24 03:02:52;;;;;;;0.50;0.30;;;16.30;99.90;;;;;;5032035;28;20437;-76
2022/10/24 03:05:20;;;;;;;2.40;1.17;;;16.40;99.90;;;;;;5031572;28;20569;-76
2022/10/24 03:07:47;;;;;;;1.00;0.80;;;16.40;99.90;;;;;;5032396;28;20441;-76
2022/10/24 03:10:13;;;;;;;0.70;0.70;;;16.40;99.90;;;;;;5032054;28;20454;-76
2022/10/24 03:12:40;;;;;;;0.57;0.53;;;16.30;99.90;;;;;;5032307;28;20469;-76
2022/10/24 03:15:08;;;;;;;0.87;0.73;;;16.40;99.90;;;;;;5031740;28;20433;-76
2022/10/24 03:17:35;;;;;;;0.60;0.50;;;16.40;99.90;;;;;;5031732;28;20479;-74
2022/10/24 03:20:02;;;;;;;0.50;0.30;;;16.40;99.90;;;;;;5032124;28;20454;-75
2022/10/24 03:22:30;;;;;;;0.60;0.50;;;16.40;99.90;;;;;;5032149;28;21038;-74
2022/10/24 03:25:00;;;;;;;0.50;0.50;;;16.40;99.90;;;;;;5031551;28;20481;-76
2022/10/24 03:27:27;;;;;;;0.50;0.30;;;16.40;99.90;;;;;;5031792;28;20483;-75
2022/10/24 03:29:54;;;;;;;1.37;1.00;;;16.30;99.90;;;;;;5031448;28;20549;-75
2022/10/24 03:32:21;;;;;;;0.50;0.40;;;16.30;99.90;;;;;;5031429;28;20438;-76
2022/10/24 03:34:48;;;;;;;1.27;0.70;;;16.30;99.90;;;;;;5031287;28;20430;-76
2022/10/24 03:37:15;;;;;;;0.90;0.57;;;16.30;99.90;;;;;;5031321;28;20548;-76
2022/10/24 03:39:43;;;;;;;0.80;0.77;;;16.30;99.90;;;;;;5031517;28;20458;-76
2022/10/24 03:42:10;;;;;;;1.40;0.83;;;16.30;99.90;;;;;;5031306;28;20442;-76
2022/10/24 03:44:37;;;;;;;6.90;2.17;;;16.20;99.90;;;;;;5031170;28;20438;-76
2022/10/24 03:47:04;;;;;;;0.50;0.40;;;16.30;99.90;;;;;;5031264;28;20445;-76
2022/10/24 03:49:31;;;;;;;2.10;1.70;;;16.20;99.90;;;;;;5031086;28;20469;-77
2022/10/24 03:51:58;;;;;;;2.63;0.60;;;16.20;99.90;;;;;;5031557;28;20445;-76
2022/10/24 03:54:25;;;;;;;1.07;0.60;;;16.20;99.90;;;;;;5031318;28;20445;-76
2022/10/24 03:56:53;;;;;;;16.07;2.40;;;16.20;99.90;;;;;;5031371;28;21035;-76
2022/10/24 03:59:20;;;;;;;0.60;0.40;;;16.10;99.90;;;;;;5030579;28;20469;-76
2022/10/24 04:01:47;;;;;;;0.50;0.40;;;16.20;99.90;;;;;;5031275;28;20879;-76
2022/10/24 04:04:13;;;;;;;0.50;0.50;;;16.20;99.90;;;;;;5031033;28;21109;-76
2022/10/24 04:06:41;;;;;;;0.60;0.50;;;16.20;99.90;;;;;;5031745;28;21014;-76
2022/10/24 04:09:08;;;;;;;0.50;0.40;;;16.20;99.90;;;;;;5031480;28;20465;-76
2022/10/24 04:11:35;;;;;;;2.70;1.53;;;16.20;99.90;;;;;;5031379;28;20437;-76
2022/10/24 04:14:04;;;;;;;0.80;0.80;;;16.20;99.90;;;;;;5030675;28;20445;-76
2022/10/24 04:16:33;;;;;;;20.43;2.43;;;16.20;99.90;;;;;;5031365;28;20430;-76
2022/10/24 04:19:00;;;;;;;0.50;0.40;;;16.10;99.90;;;;;;5030865;28;20500;-76
2022/10/24 04:21:27;;;;;;;0.90;0.70;;;16.10;99.90;;;;;;5031067;28;20456;-75
2022/10/24 04:23:54;;;;;;;0.50;0.40;;;16.10;99.90;;;;;;5030812;28;20444;-75
2022/10/24 04:26:21;;;;;;;0.60;0.50;;;16.10;99.90;;;;;;5031226;28;20478;-76
2022/10/24 04:28:48;;;;;;;0.60;0.53;;;16.00;99.90;;;;;;5031007;28;20462;-76
2022/10/24 04:31:16;;;;;;;1.60;1.43;;;16.00;99.90;;;;;;5030934;28;20442;-76
2022/10/24 04:33:43;;;;;;;0.60;0.60;;;16.00;99.90;;;;;;5031132;28;20472;-76
2022/10/24 04:36:10;;;;;;;0.97;0.87;;;16.00;99.90;;;;;;5030877;28;20438;-76
2022/10/24 04:38:37;;;;;;;0.80;0.70;;;16.00;99.90;;;;;;5031166;28;20444;-76
2022/10/24 04:41:04;;;;;;;0.50;0.47;;;16.00;99.90;;;;;;5030826;28;20533;-76
2022/10/24 04:43:30;;;;;;;1.03;1.03;;;15.90;99.90;;;;;;5031022;28;20448;-74
2022/10/24 04:45:57;;;;;;;2.20;1.27;;;15.90;99.90;;;;;;5034211;28;20557;-76
2022/10/24 04:48:25;;;;;;;0.60;0.60;;;15.90;99.90;;;;;;5035136;28;20444;-75
2022/10/24 04:50:52;;;;;;;0.50;0.43;;;15.90;99.90;;;;;;5034829;28;20537;-76
2022/10/24 04:53:19;;;;;;;0.50;0.40;;;15.90;99.90;;;;;;5034547;28;20532;-76
2022/10/24 04:55:46;;;;;;;0.60;0.60;;;15.80;99.90;;;;;;5034304;28;20628;-76
2022/10/24 04:58:13;;;;;;;0.60;0.60;;;15.90;99.90;;;;;;5034759;28;20442;-76
2022/10/24 05:00:42;;;;;;;0.50;0.40;;;15.80;99.90;;;;;;5034370;28;20462;-76
2022/10/24 05:03:09;;;;;;;0.50;0.40;;;15.90;99.90;;;;;;5034503;28;20444;-76
2022/10/24 05:05:37;;;;;;;0.50;0.40;;;15.80;99.90;;;;;;5033868;28;20484;-75
2022/10/24 05:08:04;;;;;;;0.60;0.60;;;15.80;99.90;;;;;;5034292;28;20845;-76
2022/10/24 05:10:31;;;;;;;1.30;1.17;;;15.90;99.90;;;;;;5034355;28;20468;-77
2022/10/24 05:12:58;;;;;;;0.83;0.70;;;15.90;99.90;;;;;;5044269;28;20536;-76
2022/10/24 05:15:24;;;;;;;0.50;0.40;;;15.90;99.90;;;;;;5033827;28;20441;-77
2022/10/24 05:17:51;;;;;;;0.50;0.40;;;15.90;99.90;;;;;;5034347;28;20442;-76
2022/10/24 05:20:18;;;;;;;2.33;1.10;;;16.00;99.90;;;;;;5033844;28;20550;-75
2022/10/24 05:22:46;;;;;;;3.60;0.80;;;16.00;99.90;;;;;;5035983;28;20441;-75
2022/10/24 05:25:13;;;;;;;6.83;1.33;;;16.00;99.90;;;;;;5034653;28;20448;-74
2022/10/24 05:27:40;;;;;;;0.50;0.33;;;16.00;99.90;;;;;;5034902;28;20473;-76
2022/10/24 05:30:08;;;;;;;1.83;1.73;;;16.00;99.90;;;;;;5033859;28;20461;-74
2022/10/24 05:32:35;;;;;;;0.73;0.73;;;15.90;99.90;;;;;;5034290;28;20434;-75
2022/10/24 05:35:02;;;;;;;0.50;0.40;;;15.90;99.90;;;;;;5033646;28;20444;-76
2022/10/24 05:37:29;;;;;;;0.50;0.40;;;15.90;99.90;;;;;;5033365;28;20445;-78
2022/10/24 05:39:57;;;;;;;0.50;0.30;;;15.90;99.90;;;;;;5033624;28;20991;-77
2022/10/24 05:42:24;;;;;;;3.17;1.43;;;15.90;99.90;;;;;;5033891;28;20440;-78
2022/10/24 05:44:51;;;;;;;1.53;0.90;;;15.80;99.90;;;;;;5033735;28;21109;-77
2022/10/24 05:47:18;;;;;;;1.20;1.10;;;15.80;99.90;;;;;;5033752;28;20839;-77
2022/10/24 05:49:45;;;;;;;0.70;0.50;;;15.70;99.90;;;;;;5033490;28;20552;-77
2022/10/24 05:52:11;;;;;;;1.63;0.70;;;15.60;99.90;;;;;;5033478;28;20438;-77
2022/10/24 05:54:38;;;;;;;0.60;0.60;;;15.70;99.90;;;;;;5033662;28;20445;-77
2022/10/24 05:57:06;;;;;;;5.13;1.37;;;15.60;99.90;;;;;;5032465;28;20438;-77
2022/10/24 05:59:33;;;;;;;0.50;0.40;;;15.60;99.90;;;;;;5033722;28;20484;-77
2022/10/24 06:02:00;;;;;;;3.07;2.97;;;15.70;99.90;;;;;;5033193;28;20461;-77
2022/10/24 06:04:27;;;;;;;0.83;0.83;;;15.70;99.90;;;;;;5032615;28;20440;-76
2022/10/24 06:06:54;;;;;;;24.07;3.13;;;15.60;99.90;;;;;;5033047;28;20995;-77
2022/10/24 06:09:20;;;;;;;0.97;0.60;;;15.60;99.90;;;;;;5033385;28;20466;-77
2022/10/24 06:11:47;;;;;;;0.90;0.60;;;15.60;99.90;;;;;;5033020;28;20972;-76
2022/10/24 06:14:16;;;;;;;0.53;0.40;;;15.60;99.90;;;;;;5032729;28;20533;-76
2022/10/24 06:16:43;;;;;;;1.33;1.13;;;15.60;99.90;;;;;;5032755;28;20963;-77
2022/10/24 06:19:10;;;;;;;2.00;1.00;;;15.60;99.90;;;;;;5033142;28;20489;-76
2022/10/24 06:21:37;;;;;;;0.57;0.47;;;15.60;99.90;;;;;;5035704;28;20458;-76
2022/10/24 06:24:04;;;;;;;1.53;0.50;;;15.50;99.90;;;;;;5043256;28;20453;-76
2022/10/24 06:26:31;;;;;;;0.50;0.40;;;15.50;99.90;;;;;;5052796;28;20823;-76
2022/10/24 06:28:57;;;;;;;0.50;0.50;;;15.50;99.90;;;;;;5052409;28;20463;-76
2022/10/24 06:31:26;;;;;;;0.50;0.40;;;15.50;99.90;;;;;;5053197;28;20528;-76
2022/10/24 06:33:54;;;;;;;10.33;1.20;;;15.50;99.90;;;;;;5052452;28;20437;-75
2022/10/24 06:36:21;;;;;;;2.90;1.23;;;15.60;99.90;;;;;;5051098;28;20471;-76
2022/10/24 06:38:48;;;;;;;0.50;0.40;;;15.50;99.90;;;;;;5052096;28;20877;-76
2022/10/24 06:41:16;;;;;;;5.90;2.87;;;15.60;99.90;;;;;;5052508;28;20445;-76
2022/10/24 06:43:43;;;;;;;0.60;0.50;;;15.60;99.90;;;;;;5051349;28;20922;-76
2022/10/24 06:46:11;;;;;;;1.37;0.60;;;15.60;99.90;;;;;;5051555;28;20479;-76
2022/10/24 06:48:39;;;;;;;0.70;0.70;;;15.70;99.90;;;;;;5052187;28;20455;-76
2022/10/24 06:51:07;;;;;;;0.50;0.40;;;15.70;99.90;;;;;;5052269;28;20520;-75
2022/10/24 06:53:34;;;;;;;1.03;0.60;;;15.70;99.90;;;;;;5052094;28;20473;-76
2022/10/24 06:56:01;;;;;;;0.60;0.60;;;15.80;99.90;;;;;;5051282;28;20482;-76
2022/10/24 06:58:31;;;;;;;0.50;0.40;;;15.80;99.90;;;;;;5052367;28;20452;-76
2022/10/24 07:00:58;;;;;;;0.50;0.40;;;15.70;99.90;;;;;;5052293;28;20452;-76
2022/10/24 07:03:25;;;;;;;13.93;1.00;;;15.70;99.90;;;;;;5052316;28;20468;-75
2022/10/24 07:05:53;;;;;;;0.57;0.43;;;15.80;99.90;;;;;;5051650;28;20495;-75
2022/10/24 07:08:20;;;;;;;0.50;0.40;;;15.80;99.90;;;;;;5051762;28;20447;-75
2022/10/24 07:10:46;;;;;;;0.50;0.40;;;15.90;99.90;;;;;;5051574;28;20463;-75
2022/10/24 07:13:13;;;;;;;0.50;0.40;;;15.90;99.90;;;;;;5051909;28;20955;-75
2022/10/24 07:15:40;;;;;;;0.70;0.53;;;15.90;99.90;;;;;;5051002;28;20536;-74
2022/10/24 07:18:07;;;;;;;0.50;0.30;;;16.00;99.90;;;;;;5051597;28;20441;-75
2022/10/24 07:20:34;;;;;;;1.07;0.97;;;16.10;99.90;;;;;;5051655;28;20549;-75
2022/10/24 07:23:02;;;;;;;0.60;0.40;;;16.20;99.90;;;;;;5051280;28;20949;-75
2022/10/24 07:25:29;;;;;;;0.50;0.40;;;16.20;99.90;;;;;;5051144;28;20441;-75
2022/10/24 07:27:55;;;;;;;4.47;1.90;;;16.30;99.90;;;;;;5051684;28;21000;-75
2022/10/24 07:30:22;;;;;;;1.20;0.70;;;16.40;99.90;;;;;;5052799;28;20512;-75
2022/10/24 07:32:49;;;;;;;0.50;0.40;;;16.40;99.90;;;;;;5052046;28;20441;-75
2022/10/24 07:35:16;;;;;;;1.23;1.17;;;16.40;99.90;;;;;;5051504;28;20532;-75
2022/10/24 07:37:43;;;;;;;0.60;0.57;;;16.50;99.90;;;;;;5051396;28;20433;-75
2022/10/24 07:40:12;;;;;;;0.77;0.60;;;16.50;99.90;;;;;;5051195;28;20468;-75
2022/10/24 07:42:39;;;;;;;0.50;0.40;;;16.50;99.90;;;;;;5051103;28;20433;-75
2022/10/24 07:45:07;;;;;;;0.50;0.33;;;16.50;99.90;;;;;;5051174;28;20443;-75
2022/10/24 07:47:34;;;;;;;0.50;0.40;;;16.50;99.90;;;;;;5051266;28;20468;-75
2022/10/24 07:50:01;;;;;;;1.00;0.50;;;16.60;99.90;;;;;;5051716;28;20461;-75
2022/10/24 07:52:28;;;;;;;5.30;1.27;;;16.70;99.90;;;;;;5051597;28;20449;-75
2022/10/24 07:54:55;;;;;;;0.50;0.40;;;16.60;99.90;;;;;;5051535;28;20448;-75
2022/10/24 07:57:23;;;;;;;0.50;0.40;;;16.60;99.90;;;;;;5051387;28;20485;-75
2022/10/24 07:59:50;;;;;;;1.83;0.53;;;16.60;99.90;;;;;;5051567;28;20973;-75
2022/10/24 08:02:17;;;;;;;0.73;0.67;;;16.60;99.90;;;;;;5051950;28;20437;-75
2022/10/24 08:04:44;;;;;;;1.13;0.73;;;16.60;99.90;;;;;;5050873;28;20445;-75
2022/10/24 08:07:12;;;;;;;1.63;0.97;;;16.60;99.90;;;;;;5050834;28;20503;-75
2022/10/24 08:09:40;;;;;;;0.60;0.40;;;16.70;99.90;;;;;;5051196;28;20468;-75
2022/10/24 08:12:07;;;;;;;0.50;0.40;;;16.80;99.90;;;;;;5051712;28;20437;-75
2022/10/24 08:14:36;;;;;;;0.60;0.40;;;16.80;99.90;;;;;;5051226;28;20487;-75
2022/10/24 08:17:04;;;;;;;1.63;1.53;;;16.80;99.90;;;;;;5051810;28;20802;-75
2022/10/24 08:19:31;;;;;;;0.50;0.30;;;16.80;99.90;;;;;;5052608;28;20490;-75
2022/10/24 08:21:58;;;;;;;0.50;0.40;;;16.80;99.90;;;;;;5055957;28;20523;-75
2022/10/24 08:24:26;;;;;;;0.50;0.30;;;16.90;99.90;;;;;;5055204;28;20455;-76
2022/10/24 08:26:54;;;;;;;2.13;1.13;;;16.80;99.90;;;;;;5055365;28;20481;-74
2022/10/24 08:29:22;;;;;;;0.70;0.60;;;16.80;99.90;;;;;;5055547;28;20873;-75
2022/10/24 08:31:52;;;;;;;1.10;0.60;;;16.80;99.90;;;;;;5055147;28;20487;-75
2022/10/24 08:34:20;;;;;;;0.50;0.30;;;16.80;99.90;;;;;;5055010;28;20441;-75
2022/10/24 08:36:47;;;;;;;0.50;0.40;;;16.80;99.90;;;;;;5054091;28;20444;-75
2022/10/24 08:39:14;;;;;;;0.67;0.40;;;16.90;99.90;;;;;;5055066;28;20543;-76
2022/10/24 08:41:45;;;;;;;2.63;0.60;;;16.90;99.90;;;;;;5054989;28;20436;-76
2022/10/24 08:44:20;;;;;;;1.13;0.93;;;16.80;99.90;;;;;;5054315;28;20490;-76
2022/10/24 08:46:54;;;;;;;0.50;0.40;;;16.90;99.90;;;;;;5054609;28;20510;-76
2022/10/24 08:49:29;;;;;;;0.60;0.60;;;16.90;99.90;;;;;;5057773;22;20485;-76
2022/10/24 08:52:01;;;;;;;0.50;0.50;;;16.90;99.90;;;;;;5028197;28;20946;-77
2022/10/24 08:54:35;;;;;;;0.97;0.70;;;17.00;99.90;;;;;;5015004;28;20812;-76
2022/10/24 08:57:02;;;;;;;2.30;1.13;;;17.10;99.90;;;;;;5014240;28;20450;-76
2022/10/24 08:59:32;;;;;;;0.50;0.33;;;17.10;99.90;;;;;;5015095;28;20777;-77
2022/10/24 09:02:04;;;;;;;1.13;0.47;;;17.10;99.90;;;;;;5015334;28;20438;-76
2022/10/24 09:04:37;;;;;;;4.10;0.80;;;17.10;99.90;;;;;;5014698;28;20415;-77
2022/10/24 09:07:04;;;;;;;0.77;0.77;;;17.10;99.90;;;;;;5014937;28;20458;-77
2022/10/24 09:09:38;;;;;;;0.90;0.43;;;17.10;99.90;;;;;;5014752;28;20462;-76
2022/10/24 09:12:10;;;;;;;2.30;1.47;;;17.10;99.90;;;;;;5014597;28;20431;-77
2022/10/24 09:14:39;;;;;;;3.70;0.97;;;17.10;99.90;;;;;;5014214;28;20813;-77
2022/10/24 09:17:16;;;;;;;0.60;0.40;;;17.10;99.90;;;;;;5014961;28;20443;-76
2022/10/24 09:19:52;;;;;;;4.30;1.00;;;17.10;99.90;;;;;;5014943;28;20466;-78
2022/10/24 09:22:19;;;;;;;2.20;0.80;;;17.30;99.90;;;;;;5014557;28;20443;-76
2022/10/24 09:24:51;;;;;;;0.77;0.40;;;17.40;99.90;;;;;;5014220;28;20448;-76
2022/10/24 09:27:22;;;;;;;5.60;0.80;;;17.50;99.90;;;;;;5014697;28;20479;-78
2022/10/24 09:29:50;;;;;;;3.13;0.77;;;17.70;99.90;;;;;;5014385;28;20455;-77
2022/10/24 09:32:21;;;;;;;5.13;0.60;;;17.70;99.90;;;;;;5013800;28;20497;-78
2022/10/24 09:34:49;;;;;;;2.67;0.93;;;17.60;99.90;;;;;;5014066;28;20457;-77
2022/10/24 09:37:39;;;;;;;0.50;0.37;;;17.50;99.90;;;;;;5014493;28;20945;-78
2022/10/24 09:40:15;;;;;;;0.97;0.50;;;17.50;99.90;;;;;;5015240;28;20469;-77
2022/10/24 09:42:49;;;;;;;2.07;0.87;;;17.40;99.90;;;;;;5015868;28;20816;-77
2022/10/24 09:45:29;;;;;;;1.93;0.50;;;17.30;99.90;;;;;;5014480;28;20437;-77
2022/10/24 09:48:00;;;;;;;0.50;0.40;;;17.30;99.90;;;;;;5013672;28;20463;-78
2022/10/24 09:50:27;;;;;;;0.90;0.50;;;17.40;99.90;;;;;;5014368;28;20526;-77
2022/10/24 09:52:58;;;;;;;0.87;0.60;;;17.60;99.90;;;;;;5014457;28;20439;-78
2022/10/24 09:55:27;;;;;;;1.03;0.77;;;17.70;99.90;;;;;;5013883;28;20449;-77
2022/10/24 09:57:56;;;;;;;2.10;0.77;;;17.80;99.90;;;;;;5014255;28;20828;-78
2022/10/24 10:00:27;;;;;;;1.07;0.60;;;17.80;99.90;;;;;;5014585;28;20562;-77
2022/10/24 10:03:01;;;;;;;0.80;0.60;;;17.80;99.90;;;;;;5013691;28;20439;-78
2022/10/24 10:05:41;;;;;;;0.80;0.40;;;17.80;99.90;;;;;;5013392;28;20461;-77
2022/10/24 10:08:12;;;;;;;2.20;1.03;;;17.80;99.90;;;;;;5013755;28;20486;-77
2022/10/24 10:10:40;;;;;;;0.60;0.50;;;17.80;99.90;;;;;;5014018;28;20514;-77
2022/10/24 10:13:18;;;;;;;2.20;0.93;;;17.80;99.90;;;;;;5014102;28;20469;-77
2022/10/24 10:15:49;;;;;;;0.77;0.53;;;17.70;99.90;;;;;;5013640;28;20427;-78
2022/10/24 10:18:31;;;;;;;0.50;0.40;;;17.70;99.90;;;;;;5013720;28;20832;-78
2022/10/24 10:21:07;;;;;;;0.60;0.50;;;17.60;99.90;;;;;;5014588;28;20840;-77
2022/10/24 10:23:37;;;;;;;0.50;0.30;;;17.70;99.90;;;;;;5014319;28;20869;-77
2022/10/24 10:26:19;;;;;;;0.50;0.30;;;17.90;99.90;;;;;;5013376;28;20522;-77
2022/10/24 10:28:53;;;;;;;1.87;0.90;;;18.10;99.90;;;;;;5013413;28;20865;-77
2022/10/24 10:31:22;;;;;;;2.73;0.47;;;18.00;99.90;;;;;;5013840;28;20415;-78
2022/10/24 10:34:04;;;;;;;1.63;0.70;;;18.20;99.90;;;;;;5013900;28;20439;-78
2022/10/24 10:36:36;;;;;;;1.13;0.40;;;18.20;99.90;;;;;;5014035;28;20447;-77
2022/10/24 10:39:21;;;;;;;0.50;0.33;;;18.20;99.90;;;;;;5013580;28;20509;-77
2022/10/24 10:41:54;;;;;;;1.53;0.70;;;18.10;99.90;;;;;;5013079;28;20447;-77
2022/10/24 10:44:38;;;;;;;0.63;0.63;;;18.30;99.90;;;;;;5013394;28;20441;-78
2022/10/24 10:47:16;;;;;;;0.50;0.30;;;19.10;99.90;;;;;;5013373;28;20493;-77
2022/10/24 10:49:48;;;;;;;3.43;0.50;;;19.30;99.90;;;;;;5013358;28;20474;-78
2022/10/24 10:52:22;;;;;;;2.97;0.90;;;19.10;99.90;;;;;;5013920;28;20797;-78
2022/10/24 10:55:14;;;;;;;1.37;0.70;;;19.00;99.90;;;;;;5013726;28;20428;-77
2022/10/24 10:57:50;;;;;;;0.67;0.50;;;18.90;99.90;;;;;;5013655;28;20428;-78
2022/10/24 11:00:21;;;;;;;1.90;0.50;;;19.00;99.90;;;;;;5013127;28;20533;-77
2022/10/24 11:03:01;;;;;;;5.13;1.43;;;18.70;99.90;;;;;;5013475;28;20427;-77
2022/10/24 11:05:43;;;;;;;6.00;1.23;;;18.30;99.90;;;;;;5013537;28;20820;-77
2022/10/24 11:08:38;;;;;;;1.17;0.90;;;18.10;99.90;;;;;;5013505;28;20888;-77
2022/10/24 11:11:11;;;;;;;1.03;0.90;;;18.00;99.90;;;;;;5012943;28;20450;-77
2022/10/24 11:13:43;;;;;;;0.60;0.40;;;18.00;99.90;;;;;;5012635;28;20436;-78
2022/10/24 11:16:16;;;;;;;1.37;0.83;;;18.00;99.90;;;;;;5013340;28;20522;-78
2022/10/24 11:18:48;;;;;;;0.90;0.70;;;18.00;99.90;;;;;;5014164;28;20463;-77
2022/10/24 11:21:20;;;;;;;7.90;0.67;;;18.10;99.90;;;;;;5015564;28;20423;-76
2022/10/24 11:23:52;;;;;;;2.30;0.50;;;18.20;99.90;;;;;;5012376;28;20897;-76
2022/10/24 11:26:22;;;;;;;2.20;0.63;;;18.20;99.90;;;;;;5012672;28;20453;-78
2022/10/24 11:28:55;;;;;;;0.60;0.40;;;18.00;99.90;;;;;;5012796;28;20856;-78
2022/10/24 11:31:25;;;;;;;0.60;0.50;;;17.90;99.90;;;;;;5012662;28;20539;-77
2022/10/24 11:33:57;;;;;;;0.50;0.40;;;18.20;99.90;;;;;;5013261;28;20453;-74
2022/10/24 11:36:32;;;;;;;0.50;0.30;;;18.40;99.90;;;;;;5012426;28;20430;-77
2022/10/24 11:39:05;;;;;;;0.80;0.40;;;18.40;99.90;;;;;;5012303;28;20840;-77
2022/10/24 11:41:47;;;;;;;0.50;0.40;;;18.20;99.90;;;;;;5011993;28;20487;-76
2022/10/24 11:44:43;;;;;;;2.10;2.00;;;18.10;99.90;;;;;;5012332;28;20425;-77
2022/10/24 11:47:35;;;;;;;0.50;0.40;;;18.00;99.90;;;;;;5005278;28;20461;-78
2022/10/24 11:50:13;;;;;;;0.50;0.40;;;17.90;99.90;;;;;;5012584;28;20845;-78
2022/10/24 11:52:45;;;;;;;2.63;0.70;;;17.80;99.90;;;;;;5012704;28;20510;-77
2022/10/24 11:55:18;;;;;;;4.37;1.03;;;17.70;99.90;;;;;;5011652;28;20427;-78
2022/10/24 11:57:48;;;;;;;1.53;0.73;;;17.70;99.90;;;;;;5013059;28;20450;-77
2022/10/24 12:00:21;;;;;;;1.80;0.50;;;17.60;99.90;;;;;;5013216;28;20901;-77
2022/10/24 12:03:26;;;;;;;0.70;0.50;;;17.40;99.90;;;;;;5013055;28;21038;-77
2022/10/24 12:06:19;;;;;;;1.10;0.97;;;17.10;99.90;;;;;;4993780;28;20453;-77
2022/10/24 12:09:22;;;;;;;1.53;0.40;;;16.70;99.90;;;;;;5003064;28;20489;-76
2022/10/24 12:12:08;;;;;;;2.30;0.87;;;16.50;99.90;;;;;;5005957;28;20461;-74
2022/10/24 12:14:55;;;;;;;0.50;0.50;;;16.50;99.90;;;;;;5012901;28;20852;-78
2022/10/24 12:17:39;;;;;;;0.80;0.63;;;16.50;99.90;;;;;;5012482;28;20446;-77
2022/10/24 12:20:11;;;;;;;3.80;1.47;;;16.50;99.90;;;;;;5012356;28;20463;-78
2022/10/24 12:22:42;;;;;;;2.30;2.10;;;16.50;99.90;;;;;;5012440;28;20449;-77
2022/10/24 12:25:21;;;;;;;0.50;0.40;;;16.60;99.90;;;;;;5012902;28;20422;-78
2022/10/24 12:27:54;;;;;;;0.70;0.70;;;16.50;99.90;;;;;;5012586;28;20480;-77
2022/10/24 12:30:24;;;;;;;0.70;0.70;;;16.50;99.90;;;;;;5011885;28;20421;-77
2022/10/24 12:32:56;;;;;;;0.80;0.80;;;16.50;99.90;;;;;;5012009;28;20438;-76
2022/10/24 12:35:46;;;;;;;0.53;0.47;;;16.50;99.90;;;;;;5012221;28;20984;-78
2022/10/24 12:38:41;;;;;;;1.00;0.67;;;16.50;99.90;;;;;;5011738;28;20462;-77
2022/10/24 12:41:38;;;;;;;2.10;0.97;;;16.50;99.90;;;;;;5011643;28;20474;-78
2022/10/24 12:44:39;;;;;;;3.30;2.10;;;16.50;99.90;;;;;;5011681;28;20423;-78
2022/10/24 12:47:26;;;;;;;0.87;0.80;;;16.60;99.90;;;;;;4970230;28;20442;-76
2022/10/24 12:49:53;;;;;;;2.77;0.70;;;16.50;99.90;;;;;;5012216;28;20485;-77
2022/10/24 12:52:57;;;;;;;2.63;2.53;;;16.50;99.90;;;;;;5011633;28;20439;-78
2022/10/24 12:55:51;;;;;;;0.60;0.50;;;16.40;99.90;;;;;;4971706;28;20450;-77
2022/10/24 12:58:28;;;;;;;6.63;3.07;;;16.40;99.90;;;;;;5010910;28;20459;-77
2022/10/24 13:00:56;;;;;;;5.13;0.63;;;16.40;99.90;;;;;;5012279;28;20451;-77
2022/10/24 13:03:41;;;;;;;0.80;0.70;;;16.40;99.90;;;;;;5011436;28;21019;-77
2022/10/24 13:06:14;;;;;;;0.50;0.40;;;16.40;99.90;;;;;;5013724;28;20808;-77